sensor_id;sensor_type;location;lat;lon;timestamp;pressure;altitude;pressure_sealevel;temperature;humidity
60355;BME280;46198;51.464;-0.066;2023-01-15T00:01:17;99910.91;;;5.59;100.00
60355;BME280;46198;51.464;-0.066;2023-01-15T00:03:46;99919.16;;;5.64;100.00
60355;BME280;46198;51.464;-0.066;2023-01-15T00:06:15;99916.09;;;5.54;100.00
60355;BME280;46198;51.464;-0.066;2023-01-15T00:08:45;99920.63;;;5.53;100.00
60355;BME280;46198;51.464;-0.066;2023-01-15T00:11:13;99909.69;;;5.48;100.00
60355;BME280;46198;51.464;-0.066;2023-01-15T00:13:42;99912.56;;;5.47;100.00
60355;BME280;46198;51.464;-0.066;2023-01-15T00:16:12;99905.53;;;5.46;100.00
60355;BME280;46198;51.464;-0.066;2023-01-15T00:18:40;99907.81;;;5.36;100.00
60355;BME280;46198;51.464;-0.066;2023-01-15T00:21:11;99913.84;;;5.38;100.00
60355;BME280;46198;51.464;-0.066;2023-01-15T00:23:39;99903.88;;;5.31;100.00
60355;BME280;46198;51.464;-0.066;2023-01-15T00:26:29;99911.53;;;5.34;100.00
60355;BME280;46198;51.464;-0.066;2023-01-15T00:29:15;99922.50;;;5.26;100.00
60355;BME280;46198;51.464;-0.066;2023-01-15T00:31:50;99899.97;;;5.27;100.00
60355;BME280;46198;51.464;-0.066;2023-01-15T00:34:20;99892.09;;;5.32;100.00
60355;BME280;46198;51.464;-0.066;2023-01-15T00:36:48;99909.47;;;5.23;100.00
60355;BME280;46198;51.464;-0.066;2023-01-15T00:39:16;99889.19;;;5.27;100.00
60355;BME280;46198;51.464;-0.066;2023-01-15T00:41:47;99901.00;;;5.20;100.00
60355;BME280;46198;51.464;-0.066;2023-01-15T00:44:15;99905.13;;;5.29;100.00
60355;BME280;46198;51.464;-0.066;2023-01-15T00:46:43;99904.72;;;5.25;100.00
60355;BME280;46198;51.464;-0.066;2023-01-15T00:49:12;99914.84;;;5.23;100.00
60355;BME280;46198;51.464;-0.066;2023-01-15T00:51:40;99913.81;;;5.18;100.00
60355;BME280;46198;51.464;-0.066;2023-01-15T00:54:08;99911.34;;;5.16;100.00
60355;BME280;46198;51.464;-0.066;2023-01-15T00:56:36;99911.56;;;5.08;100.00
60355;BME280;46198;51.464;-0.066;2023-01-15T00:59:05;99910.91;;;5.13;100.00
60355;BME280;46198;51.464;-0.066;2023-01-15T01:01:34;99908.25;;;5.06;100.00
60355;BME280;46198;51.464;-0.066;2023-01-15T01:04:02;99898.09;;;5.08;100.00
60355;BME280;46198;51.464;-0.066;2023-01-15T01:06:30;99909.28;;;5.05;100.00
60355;BME280;46198;51.464;-0.066;2023-01-15T01:08:58;99900.16;;;5.06;100.00
60355;BME280;46198;51.464;-0.066;2023-01-15T01:11:29;99901.00;;;5.00;100.00
60355;BME280;46198;51.464;-0.066;2023-01-15T01:14:00;99901.41;;;4.97;100.00
60355;BME280;46198;51.464;-0.066;2023-01-15T01:16:31;99895.41;;;4.95;100.00
60355;BME280;46198;51.464;-0.066;2023-01-15T01:19:03;99900.56;;;4.96;100.00
60355;BME280;46198;51.464;-0.066;2023-01-15T01:21:32;99908.88;;;4.95;100.00
60355;BME280;46198;51.464;-0.066;2023-01-15T01:24:00;99903.06;;;4.84;100.00
60355;BME280;46198;51.464;-0.066;2023-01-15T01:26:29;99903.06;;;4.84;100.00
60355;BME280;46198;51.464;-0.066;2023-01-15T01:29:00;99895.63;;;4.86;100.00
60355;BME280;46198;51.464;-0.066;2023-01-15T01:31:29;99894.78;;;4.86;100.00
60355;BME280;46198;51.464;-0.066;2023-01-15T01:33:58;99896.22;;;4.82;100.00
60355;BME280;46198;51.464;-0.066;2023-01-15T01:36:28;99894.75;;;4.79;100.00
60355;BME280;46198;51.464;-0.066;2023-01-15T01:39:00;99898.09;;;4.81;100.00
60355;BME280;46198;51.464;-0.066;2023-01-15T01:41:30;99895.19;;;4.76;100.00
60355;BME280;46198;51.464;-0.066;2023-01-15T01:44:01;99896.81;;;4.77;100.00
60355;BME280;46198;51.464;-0.066;2023-01-15T01:46:32;99909.44;;;4.70;100.00
60355;BME280;46198;51.464;-0.066;2023-01-15T01:49:04;99915.63;;;4.64;100.00
60355;BME280;46198;51.464;-0.066;2023-01-15T01:51:36;99924.13;;;4.68;100.00
60355;BME280;46198;51.464;-0.066;2023-01-15T01:54:08;99929.28;;;4.69;100.00
60355;BME280;46198;51.464;-0.066;2023-01-15T01:56:37;99934.66;;;4.62;100.00
60355;BME280;46198;51.464;-0.066;2023-01-15T01:59:06;99926.00;;;4.67;100.00
60355;BME280;46198;51.464;-0.066;2023-01-15T02:01:36;99930.75;;;4.65;100.00
60355;BME280;46198;51.464;-0.066;2023-01-15T02:04:05;99933.22;;;4.60;100.00
60355;BME280;46198;51.464;-0.066;2023-01-15T02:06:35;99938.19;;;4.63;100.00
60355;BME280;46198;51.464;-0.066;2023-01-15T02:09:04;99932.16;;;4.61;100.00
60355;BME280;46198;51.464;-0.066;2023-01-15T02:11:33;99945.59;;;4.61;100.00
60355;BME280;46198;51.464;-0.066;2023-01-15T02:14:04;99930.34;;;4.61;100.00
60355;BME280;46198;51.464;-0.066;2023-01-15T02:16:41;99936.94;;;4.59;100.00
60355;BME280;46198;51.464;-0.066;2023-01-15T02:19:21;99935.88;;;4.53;100.00
60355;BME280;46198;51.464;-0.066;2023-01-15T02:21:56;99929.47;;;4.54;100.00
60355;BME280;46198;51.464;-0.066;2023-01-15T02:24:33;99934.03;;;4.54;100.00
60355;BME280;46198;51.464;-0.066;2023-01-15T02:27:11;99937.31;;;4.49;100.00
60355;BME280;46198;51.464;-0.066;2023-01-15T02:30:10;99927.38;;;4.50;100.00
60355;BME280;46198;51.464;-0.066;2023-01-15T02:33:01;99924.06;;;4.48;100.00
60355;BME280;46198;51.464;-0.066;2023-01-15T02:35:36;99919.50;;;4.41;100.00
60355;BME280;46198;51.464;-0.066;2023-01-15T02:38:11;99915.56;;;4.37;100.00
60355;BME280;46198;51.464;-0.066;2023-01-15T02:40:45;99916.19;;;4.39;100.00
60355;BME280;46198;51.464;-0.066;2023-01-15T02:43:20;99916.41;;;4.38;100.00
60355;BME280;46198;51.464;-0.066;2023-01-15T02:45:53;99914.13;;;4.41;100.00
60355;BME280;46198;51.464;-0.066;2023-01-15T02:48:26;99918.03;;;4.32;100.00
60355;BME280;46198;51.464;-0.066;2023-01-15T02:51:00;99922.59;;;4.38;100.00
60355;BME280;46198;51.464;-0.066;2023-01-15T02:53:32;99918.44;;;4.29;100.00
60355;BME280;46198;51.464;-0.066;2023-01-15T02:56:04;99911.63;;;4.33;100.00
60355;BME280;46198;51.464;-0.066;2023-01-15T02:58:44;99906.00;;;4.28;100.00
60355;BME280;46198;51.464;-0.066;2023-01-15T03:01:17;99907.47;;;4.31;100.00
60355;BME280;46198;51.464;-0.066;2023-01-15T03:03:54;99900.88;;;4.27;100.00
60355;BME280;46198;51.464;-0.066;2023-01-15T03:06:32;99899.22;;;4.32;100.00
60355;BME280;46198;51.464;-0.066;2023-01-15T03:09:04;99900.22;;;4.31;100.00
60355;BME280;46198;51.464;-0.066;2023-01-15T03:11:36;99891.97;;;4.26;100.00
60355;BME280;46198;51.464;-0.066;2023-01-15T03:14:12;99880.78;;;4.22;100.00
60355;BME280;46198;51.464;-0.066;2023-01-15T03:16:46;99886.38;;;4.21;100.00
60355;BME280;46198;51.464;-0.066;2023-01-15T03:19:22;99886.97;;;4.23;100.00
60355;BME280;46198;51.464;-0.066;2023-01-15T03:21:57;99882.25;;;4.25;100.00
60355;BME280;46198;51.464;-0.066;2023-01-15T03:24:32;99886.75;;;4.18;100.00
60355;BME280;46198;51.464;-0.066;2023-01-15T03:27:03;99896.50;;;4.19;100.00
60355;BME280;46198;51.464;-0.066;2023-01-15T03:29:36;99889.44;;;4.18;100.00
60355;BME280;46198;51.464;-0.066;2023-01-15T03:32:06;99879.91;;;4.09;100.00
60355;BME280;46198;51.464;-0.066;2023-01-15T03:34:37;99879.50;;;4.12;100.00
60355;BME280;46198;51.464;-0.066;2023-01-15T03:37:08;99889.84;;;4.15;100.00
60355;BME280;46198;51.464;-0.066;2023-01-15T03:39:37;99886.75;;;4.11;100.00
60355;BME280;46198;51.464;-0.066;2023-01-15T03:42:28;99875.81;;;4.13;100.00
60355;BME280;46198;51.464;-0.066;2023-01-15T03:45:05;99875.19;;;4.11;100.00
60355;BME280;46198;51.464;-0.066;2023-01-15T03:47:48;99903.03;;;4.10;100.00
60355;BME280;46198;51.464;-0.066;2023-01-15T03:50:24;99904.31;;;4.07;100.00
60355;BME280;46198;51.464;-0.066;2023-01-15T03:53:01;99891.88;;;4.06;100.00
60355;BME280;46198;51.464;-0.066;2023-01-15T03:55:38;99887.97;;;4.09;100.00
60355;BME280;46198;51.464;-0.066;2023-01-15T03:58:13;99893.94;;;4.04;100.00
60355;BME280;46198;51.464;-0.066;2023-01-15T04:00:49;99898.06;;;4.07;100.00
60355;BME280;46198;51.464;-0.066;2023-01-15T04:03:22;99887.34;;;4.07;100.00
60355;BME280;46198;51.464;-0.066;2023-01-15T04:05:54;99886.50;;;4.06;100.00
60355;BME280;46198;51.464;-0.066;2023-01-15T04:08:25;99879.44;;;3.98;100.00
60355;BME280;46198;51.464;-0.066;2023-01-15T04:10:55;99877.81;;;3.97;100.00
60355;BME280;46198;51.464;-0.066;2023-01-15T04:13:29;99875.13;;;3.97;100.00
60355;BME280;46198;51.464;-0.066;2023-01-15T04:15:59;99873.47;;;3.96;100.00
60355;BME280;46198;51.464;-0.066;2023-01-15T04:18:27;99871.78;;;3.95;100.00
60355;BME280;46198;51.464;-0.066;2023-01-15T04:20:56;99862.50;;;3.91;100.00
60355;BME280;46198;51.464;-0.066;2023-01-15T04:23:28;99870.97;;;3.95;100.00
60355;BME280;46198;51.464;-0.066;2023-01-15T04:25:56;99872.59;;;3.89;100.00
60355;BME280;46198;51.464;-0.066;2023-01-15T04:28:24;99863.09;;;3.93;100.00
60355;BME280;46198;51.464;-0.066;2023-01-15T04:30:55;99865.78;;;3.93;100.00
60355;BME280;46198;51.464;-0.066;2023-01-15T04:33:25;99870.16;;;3.94;100.00
60355;BME280;46198;51.464;-0.066;2023-01-15T04:35:53;99866.44;;;3.95;100.00
60355;BME280;46198;51.464;-0.066;2023-01-15T04:38:21;99860.41;;;3.93;100.00
60355;BME280;46198;51.464;-0.066;2023-01-15T04:40:49;99882.31;;;3.90;100.00
60355;BME280;46198;51.464;-0.066;2023-01-15T04:43:35;99851.53;;;3.86;100.00
60355;BME280;46198;51.464;-0.066;2023-01-15T04:46:20;99859.19;;;3.89;100.00
60355;BME280;46198;51.464;-0.066;2023-01-15T04:48:50;99854.44;;;3.91;100.00
60355;BME280;46198;51.464;-0.066;2023-01-15T04:51:18;99845.75;;;3.89;100.00
60355;BME280;46198;51.464;-0.066;2023-01-15T04:53:46;99837.88;;;3.81;100.00
60355;BME280;46198;51.464;-0.066;2023-01-15T04:56:14;99835.38;;;3.80;100.00
60355;BME280;46198;51.464;-0.066;2023-01-15T04:58:42;99848.03;;;3.86;100.00
60355;BME280;46198;51.464;-0.066;2023-01-15T05:01:11;99844.47;;;3.78;100.00
60355;BME280;46198;51.464;-0.066;2023-01-15T05:03:40;99865.06;;;3.71;100.00
60355;BME280;46198;51.464;-0.066;2023-01-15T05:06:10;99859.31;;;3.74;100.00
60355;BME280;46198;51.464;-0.066;2023-01-15T05:08:40;99856.84;;;3.73;100.00
60355;BME280;46198;51.464;-0.066;2023-01-15T05:11:08;99856.03;;;3.79;100.00
60355;BME280;46198;51.464;-0.066;2023-01-15T05:13:36;99855.59;;;3.75;100.00
60355;BME280;46198;51.464;-0.066;2023-01-15T05:16:09;99858.31;;;3.82;100.00
60355;BME280;46198;51.464;-0.066;2023-01-15T05:18:38;99852.09;;;3.75;100.00
60355;BME280;46198;51.464;-0.066;2023-01-15T05:21:14;99856.84;;;3.73;100.00
60355;BME280;46198;51.464;-0.066;2023-01-15T05:23:43;99847.13;;;3.72;100.00
60355;BME280;46198;51.464;-0.066;2023-01-15T05:26:11;99836.00;;;3.75;100.00
60355;BME280;46198;51.464;-0.066;2023-01-15T05:28:40;99840.72;;;3.73;100.00
60355;BME280;46198;51.464;-0.066;2023-01-15T05:31:09;99831.63;;;3.74;100.00
60355;BME280;46198;51.464;-0.066;2023-01-15T05:33:38;99823.38;;;3.75;100.00
60355;BME280;46198;51.464;-0.066;2023-01-15T05:36:09;99832.84;;;3.71;100.00
60355;BME280;46198;51.464;-0.066;2023-01-15T05:38:39;99841.75;;;3.72;100.00
60355;BME280;46198;51.464;-0.066;2023-01-15T05:41:09;99851.06;;;3.76;100.00
60355;BME280;46198;51.464;-0.066;2023-01-15T05:43:52;99841.78;;;3.78;100.00
60355;BME280;46198;51.464;-0.066;2023-01-15T05:46:20;99840.16;;;3.84;100.00
60355;BME280;46198;51.464;-0.066;2023-01-15T05:48:49;99832.75;;;3.93;100.00
60355;BME280;46198;51.464;-0.066;2023-01-15T05:51:17;99827.53;;;3.85;100.00
60355;BME280;46198;51.464;-0.066;2023-01-15T05:53:46;99839.56;;;3.89;100.00
60355;BME280;46198;51.464;-0.066;2023-01-15T05:56:14;99839.97;;;3.92;100.00
60355;BME280;46198;51.464;-0.066;2023-01-15T05:58:42;99825.50;;;3.93;100.00
60355;BME280;46198;51.464;-0.066;2023-01-15T06:01:10;99822.63;;;3.95;100.00
60355;BME280;46198;51.464;-0.066;2023-01-15T06:03:39;99806.94;;;3.98;100.00
60355;BME280;46198;51.464;-0.066;2023-01-15T06:06:11;99793.72;;;4.04;100.00
60355;BME280;46198;51.464;-0.066;2023-01-15T06:08:40;99797.88;;;4.06;100.00
60355;BME280;46198;51.464;-0.066;2023-01-15T06:11:10;99786.53;;;4.11;100.00
60355;BME280;46198;51.464;-0.066;2023-01-15T06:13:38;99791.69;;;4.19;100.00
60355;BME280;46198;51.464;-0.066;2023-01-15T06:16:07;99787.34;;;4.18;100.00
60355;BME280;46198;51.464;-0.066;2023-01-15T06:18:36;99794.56;;;4.17;100.00
60355;BME280;46198;51.464;-0.066;2023-01-15T06:21:05;99787.97;;;4.20;100.00
60355;BME280;46198;51.464;-0.066;2023-01-15T06:23:34;99795.03;;;4.21;100.00
60355;BME280;46198;51.464;-0.066;2023-01-15T06:26:04;99794.16;;;4.20;100.00
60355;BME280;46198;51.464;-0.066;2023-01-15T06:28:34;99797.72;;;4.21;100.00
60355;BME280;46198;51.464;-0.066;2023-01-15T06:31:04;99804.91;;;4.20;100.00
60355;BME280;46198;51.464;-0.066;2023-01-15T06:33:32;99800.19;;;4.22;100.00
60355;BME280;46198;51.464;-0.066;2023-01-15T06:36:02;99792.94;;;4.23;100.00
60355;BME280;46198;51.464;-0.066;2023-01-15T06:38:30;99790.66;;;4.20;100.00
60355;BME280;46198;51.464;-0.066;2023-01-15T06:40:59;99791.28;;;4.22;100.00
60355;BME280;46198;51.464;-0.066;2023-01-15T06:43:27;99782.81;;;4.18;100.00
60355;BME280;46198;51.464;-0.066;2023-01-15T06:46:15;99801.00;;;4.23;100.00
60355;BME280;46198;51.464;-0.066;2023-01-15T06:49:01;99792.13;;;4.16;100.00
60355;BME280;46198;51.464;-0.066;2023-01-15T06:51:29;99792.13;;;4.22;100.00
60355;BME280;46198;51.464;-0.066;2023-01-15T06:53:57;99791.09;;;4.24;100.00
60355;BME280;46198;51.464;-0.066;2023-01-15T06:56:25;99785.09;;;4.21;100.00
60355;BME280;46198;51.464;-0.066;2023-01-15T06:59:19;99798.72;;;4.20;100.00
60355;BME280;46198;51.464;-0.066;2023-01-15T07:01:48;99783.41;;;4.20;100.00
60355;BME280;46198;51.464;-0.066;2023-01-15T07:04:16;99791.06;;;4.17;100.00
60355;BME280;46198;51.464;-0.066;2023-01-15T07:06:44;99803.47;;;4.18;100.00
60355;BME280;46198;51.464;-0.066;2023-01-15T07:09:13;99785.50;;;4.18;100.00
60355;BME280;46198;51.464;-0.066;2023-01-15T07:11:41;99786.75;;;4.16;100.00
60355;BME280;46198;51.464;-0.066;2023-01-15T07:14:16;99796.03;;;4.13;100.00
60355;BME280;46198;51.464;-0.066;2023-01-15T07:16:45;99796.25;;;4.18;100.00
60355;BME280;46198;51.464;-0.066;2023-01-15T07:19:14;99808.84;;;4.11;100.00
60355;BME280;46198;51.464;-0.066;2023-01-15T07:21:43;99810.28;;;4.07;100.00
60355;BME280;46198;51.464;-0.066;2023-01-15T07:24:12;99806.16;;;4.05;100.00
60355;BME280;46198;51.464;-0.066;2023-01-15T07:26:41;99803.28;;;4.13;100.00
60355;BME280;46198;51.464;-0.066;2023-01-15T07:29:09;99800.38;;;4.08;100.00
60355;BME280;46198;51.464;-0.066;2023-01-15T07:31:38;99791.06;;;4.10;100.00
60355;BME280;46198;51.464;-0.066;2023-01-15T07:34:06;99784.47;;;4.13;100.00
60355;BME280;46198;51.464;-0.066;2023-01-15T07:36:36;99780.75;;;4.14;100.00
60355;BME280;46198;51.464;-0.066;2023-01-15T07:39:05;99779.28;;;4.18;100.00
60355;BME280;46198;51.464;-0.066;2023-01-15T07:41:33;99776.41;;;4.13;100.00
60355;BME280;46198;51.464;-0.066;2023-01-15T07:44:19;99775.97;;;4.09;100.00
60355;BME280;46198;51.464;-0.066;2023-01-15T07:47:14;99778.47;;;4.11;100.00
60355;BME280;46198;51.464;-0.066;2023-01-15T07:50:01;99783.19;;;4.09;100.00
60355;BME280;46198;51.464;-0.066;2023-01-15T07:52:32;99780.50;;;4.09;100.00
60355;BME280;46198;51.464;-0.066;2023-01-15T07:55:04;99786.72;;;4.09;100.00
60355;BME280;46198;51.464;-0.066;2023-01-15T07:57:35;99795.41;;;4.11;100.00
60355;BME280;46198;51.464;-0.066;2023-01-15T08:00:04;99787.75;;;4.15;100.00
60355;BME280;46198;51.464;-0.066;2023-01-15T08:02:38;99795.03;;;4.21;100.00
60355;BME280;46198;51.464;-0.066;2023-01-15T08:05:07;99796.03;;;4.20;100.00
60355;BME280;46198;51.464;-0.066;2023-01-15T08:07:37;99789.66;;;4.21;100.00
60355;BME280;46198;51.464;-0.066;2023-01-15T08:10:06;99788.00;;;4.27;100.00
60355;BME280;46198;51.464;-0.066;2023-01-15T08:12:35;99802.03;;;4.29;100.00
60355;BME280;46198;51.464;-0.066;2023-01-15T08:15:23;99798.97;;;4.38;100.00
60355;BME280;46198;51.464;-0.066;2023-01-15T08:17:51;99803.72;;;4.36;100.00
60355;BME280;46198;51.464;-0.066;2023-01-15T08:20:21;99802.88;;;4.36;100.00
60355;BME280;46198;51.464;-0.066;2023-01-15T08:22:51;99814.25;;;4.44;100.00
60355;BME280;46198;51.464;-0.066;2023-01-15T08:25:21;99816.94;;;4.44;100.00
60355;BME280;46198;51.464;-0.066;2023-01-15T08:27:50;99812.41;;;4.45;100.00
60355;BME280;46198;51.464;-0.066;2023-01-15T08:30:21;99817.78;;;4.52;100.00
60355;BME280;46198;51.464;-0.066;2023-01-15T08:32:49;99816.56;;;4.54;100.00
60355;BME280;46198;51.464;-0.066;2023-01-15T08:35:17;99819.47;;;4.59;100.00
60355;BME280;46198;51.464;-0.066;2023-01-15T08:37:46;99822.16;;;4.59;100.00
60355;BME280;46198;51.464;-0.066;2023-01-15T08:40:15;99825.66;;;4.60;100.00
60355;BME280;46198;51.464;-0.066;2023-01-15T08:42:45;99816.56;;;4.61;100.00
60355;BME280;46198;51.464;-0.066;2023-01-15T08:45:13;99821.09;;;4.60;100.00
60355;BME280;46198;51.464;-0.066;2023-01-15T08:47:41;99824.22;;;4.71;100.00
60355;BME280;46198;51.464;-0.066;2023-01-15T08:50:10;99816.38;;;4.76;100.00
60355;BME280;46198;51.464;-0.066;2023-01-15T08:52:38;99812.03;;;4.81;100.00
60355;BME280;46198;51.464;-0.066;2023-01-15T08:55:07;99818.22;;;4.88;100.00
60355;BME280;46198;51.464;-0.066;2023-01-15T08:57:37;99814.09;;;4.93;100.00
60355;BME280;46198;51.464;-0.066;2023-01-15T09:00:06;99806.63;;;4.95;100.00
60355;BME280;46198;51.464;-0.066;2023-01-15T09:02:35;99803.72;;;5.03;100.00
60355;BME280;46198;51.464;-0.066;2023-01-15T09:05:04;99807.06;;;5.05;100.00
60355;BME280;46198;51.464;-0.066;2023-01-15T09:07:32;99814.69;;;5.08;100.00
60355;BME280;46198;51.464;-0.066;2023-01-15T09:10:01;99816.97;;;5.11;100.00
60355;BME280;46198;51.464;-0.066;2023-01-15T09:12:32;99812.38;;;5.18;100.00
60355;BME280;46198;51.464;-0.066;2023-01-15T09:15:04;99814.06;;;5.19;100.00
60355;BME280;46198;51.464;-0.066;2023-01-15T09:17:33;99827.28;;;5.27;100.00
60355;BME280;46198;51.464;-0.066;2023-01-15T09:20:08;99811.34;;;5.32;100.00
60355;BME280;46198;51.464;-0.066;2023-01-15T09:23:02;99851.25;;;5.42;100.00
60355;BME280;46198;51.464;-0.066;2023-01-15T09:25:30;99816.03;;;5.50;100.00
60355;BME280;46198;51.464;-0.066;2023-01-15T09:27:58;99836.34;;;5.53;100.00
60355;BME280;46198;51.464;-0.066;2023-01-15T09:30:27;99834.66;;;5.59;100.00
60355;BME280;46198;51.464;-0.066;2023-01-15T09:32:55;99849.34;;;5.69;100.00
60355;BME280;46198;51.464;-0.066;2023-01-15T09:35:24;99856.59;;;5.75;100.00
60355;BME280;46198;51.464;-0.066;2023-01-15T09:37:52;99854.91;;;5.81;100.00
60355;BME280;46198;51.464;-0.066;2023-01-15T09:40:44;99857.38;;;5.83;100.00
60355;BME280;46198;51.464;-0.066;2023-01-15T09:43:23;99858.59;;;5.93;100.00
60355;BME280;46198;51.464;-0.066;2023-01-15T09:46:00;99856.13;;;5.92;100.00
60355;BME280;46198;51.464;-0.066;2023-01-15T09:48:45;99864.56;;;6.02;100.00
60355;BME280;46198;51.464;-0.066;2023-01-15T09:51:24;99875.13;;;6.10;100.00
60355;BME280;46198;51.464;-0.066;2023-01-15T09:54:05;99883.00;;;6.12;100.00
60355;BME280;46198;51.464;-0.066;2023-01-15T09:56:38;99868.03;;;6.16;100.00
60355;BME280;46198;51.464;-0.066;2023-01-15T09:59:16;99884.38;;;6.28;100.00
60355;BME280;46198;51.464;-0.066;2023-01-15T10:01:48;99878.81;;;6.22;100.00
60355;BME280;46198;51.464;-0.066;2023-01-15T10:04:27;99881.63;;;6.34;100.00
60355;BME280;46198;51.464;-0.066;2023-01-15T10:07:04;99885.34;;;6.40;100.00
60355;BME280;46198;51.464;-0.066;2023-01-15T10:09:35;99903.78;;;6.43;100.00
60355;BME280;46198;51.464;-0.066;2023-01-15T10:12:12;99908.59;;;6.41;100.00
60355;BME280;46198;51.464;-0.066;2023-01-15T10:15:09;99908.16;;;6.44;100.00
60355;BME280;46198;51.464;-0.066;2023-01-15T10:17:43;99910.59;;;6.52;100.00
60355;BME280;46198;51.464;-0.066;2023-01-15T10:20:16;99931.75;;;6.55;100.00
60355;BME280;46198;51.464;-0.066;2023-01-15T10:22:57;99917.00;;;6.51;100.00
60355;BME280;46198;51.464;-0.066;2023-01-15T10:25:34;99926.16;;;6.50;100.00
60355;BME280;46198;51.464;-0.066;2023-01-15T10:28:14;99935.88;;;6.58;100.00
60355;BME280;46198;51.464;-0.066;2023-01-15T10:30:48;99928.78;;;6.63;100.00
60355;BME280;46198;51.464;-0.066;2023-01-15T10:33:30;99942.22;;;6.70;100.00
60355;BME280;46198;51.464;-0.066;2023-01-15T10:36:06;99936.81;;;6.70;100.00
60355;BME280;46198;51.464;-0.066;2023-01-15T10:38:44;99935.38;;;6.74;100.00
60355;BME280;46198;51.464;-0.066;2023-01-15T10:41:29;99942.81;;;6.79;100.00
60355;BME280;46198;51.464;-0.066;2023-01-15T10:44:31;99940.72;;;6.81;100.00
60355;BME280;46198;51.464;-0.066;2023-01-15T10:47:11;99931.59;;;6.82;100.00
60355;BME280;46198;51.464;-0.066;2023-01-15T10:49:42;99951.31;;;6.76;100.00
60355;BME280;46198;51.464;-0.066;2023-01-15T10:52:21;99943.41;;;6.81;100.00
60355;BME280;46198;51.464;-0.066;2023-01-15T10:54:54;99943.84;;;6.78;100.00
60355;BME280;46198;51.464;-0.066;2023-01-15T10:57:37;99938.41;;;6.84;100.00
60355;BME280;46198;51.464;-0.066;2023-01-15T11:00:10;99944.84;;;6.83;100.00
60355;BME280;46198;51.464;-0.066;2023-01-15T11:02:40;99953.16;;;6.82;100.00
60355;BME280;46198;51.464;-0.066;2023-01-15T11:05:14;99939.84;;;6.87;100.00
60355;BME280;46198;51.464;-0.066;2023-01-15T11:07:45;99944.38;;;6.93;100.00
60355;BME280;46198;51.464;-0.066;2023-01-15T11:10:33;99938.97;;;6.93;100.00
60355;BME280;46198;51.464;-0.066;2023-01-15T11:13:16;99952.16;;;7.08;100.00
60355;BME280;46198;51.464;-0.066;2023-01-15T11:16:28;99944.91;;;7.08;100.00
60355;BME280;46198;51.464;-0.066;2023-01-15T11:19:24;99954.56;;;7.23;100.00
60355;BME280;46198;51.464;-0.066;2023-01-15T11:22:10;99943.69;;;7.29;100.00
60355;BME280;46198;51.464;-0.066;2023-01-15T11:24:47;99935.38;;;7.31;100.00
60355;BME280;46198;51.464;-0.066;2023-01-15T11:27:19;99936.38;;;7.12;100.00
60355;BME280;46198;51.464;-0.066;2023-01-15T11:29:51;99954.03;;;7.07;100.00
60355;BME280;46198;51.464;-0.066;2023-01-15T11:32:28;99932.25;;;7.02;100.00
60355;BME280;46198;51.464;-0.066;2023-01-15T11:34:58;99919.38;;;7.04;100.00
60355;BME280;46198;51.464;-0.066;2023-01-15T11:37:29;99930.63;;;7.01;100.00
60355;BME280;46198;51.464;-0.066;2023-01-15T11:39:59;99921.88;;;7.06;100.00
60355;BME280;46198;51.464;-0.066;2023-01-15T11:42:32;99924.84;;;6.98;100.00
60355;BME280;46198;51.464;-0.066;2023-01-15T11:45:20;99923.97;;;7.04;100.00
60355;BME280;46198;51.464;-0.066;2023-01-15T11:48:13;99933.16;;;6.96;100.00
60355;BME280;46198;51.464;-0.066;2023-01-15T11:51:04;99924.88;;;6.91;100.00
60355;BME280;46198;51.464;-0.066;2023-01-15T11:53:42;99919.72;;;6.90;100.00
60355;BME280;46198;51.464;-0.066;2023-01-15T11:56:14;99920.25;;;6.98;100.00
60355;BME280;46198;51.464;-0.066;2023-01-15T11:58:45;99917.41;;;6.93;100.00
60355;BME280;46198;51.464;-0.066;2023-01-15T12:01:20;99914.88;;;6.98;100.00
60355;BME280;46198;51.464;-0.066;2023-01-15T12:04:23;99912.38;;;6.97;100.00
60355;BME280;46198;51.464;-0.066;2023-01-15T12:06:52;99910.19;;;6.87;100.00
60355;BME280;46198;51.464;-0.066;2023-01-15T12:09:28;99905.28;;;7.02;100.00
60355;BME280;46198;51.464;-0.066;2023-01-15T12:12:06;99914.31;;;7.15;100.00
60355;BME280;46198;51.464;-0.066;2023-01-15T12:14:55;99898.13;;;7.15;100.00
60355;BME280;46198;51.464;-0.066;2023-01-15T12:17:45;99899.50;;;7.24;100.00
60355;BME280;46198;51.464;-0.066;2023-01-15T12:20:23;99895.69;;;7.31;100.00
60355;BME280;46198;51.464;-0.066;2023-01-15T12:23:06;99886.81;;;7.24;100.00
60355;BME280;46198;51.464;-0.066;2023-01-15T12:25:51;99897.41;;;7.26;100.00
60355;BME280;46198;51.464;-0.066;2023-01-15T12:28:23;99885.09;;;7.30;100.00
60355;BME280;46198;51.464;-0.066;2023-01-15T12:30:58;99890.28;;;7.31;100.00
60355;BME280;46198;51.464;-0.066;2023-01-15T12:33:41;99882.53;;;7.42;100.00
60355;BME280;46198;51.464;-0.066;2023-01-15T12:36:14;99884.81;;;7.38;100.00
60355;BME280;46198;51.464;-0.066;2023-01-15T12:38:49;99871.31;;;7.38;100.00
60355;BME280;46198;51.464;-0.066;2023-01-15T12:41:23;99871.41;;;7.31;100.00
60355;BME280;46198;51.464;-0.066;2023-01-15T12:44:15;99870.34;;;7.32;100.00
60355;BME280;46198;51.464;-0.066;2023-01-15T12:47:09;99866.16;;;7.37;100.00
60355;BME280;46198;51.464;-0.066;2023-01-15T12:49:42;99868.19;;;7.41;100.00
60355;BME280;46198;51.464;-0.066;2023-01-15T12:52:15;99870.91;;;7.41;100.00
60355;BME280;46198;51.464;-0.066;2023-01-15T12:54:54;99864.00;;;7.45;100.00
60355;BME280;46198;51.464;-0.066;2023-01-15T12:57:32;99859.13;;;7.54;100.00
60355;BME280;46198;51.464;-0.066;2023-01-15T13:03:50;99851.41;;;7.58;100.00
60355;BME280;46198;51.464;-0.066;2023-01-15T13:06:22;99852.88;;;7.53;100.00
60355;BME280;46198;51.464;-0.066;2023-01-15T13:08:59;99850.34;;;7.59;100.00
60355;BME280;46198;51.464;-0.066;2023-01-15T13:11:29;99842.09;;;7.53;100.00
60355;BME280;46198;51.464;-0.066;2023-01-15T13:13:58;99844.34;;;7.57;100.00
60355;BME280;46198;51.464;-0.066;2023-01-15T13:16:34;99830.78;;;7.63;100.00
60355;BME280;46198;51.464;-0.066;2023-01-15T13:19:15;99829.50;;;7.66;100.00
60355;BME280;46198;51.464;-0.066;2023-01-15T13:21:47;99842.09;;;7.72;100.00
60355;BME280;46198;51.464;-0.066;2023-01-15T13:24:41;99843.16;;;7.71;100.00
60355;BME280;46198;51.464;-0.066;2023-01-15T13:27:22;99827.31;;;7.74;100.00